메인 페이지
METAR-TAF:

METAR-TAF

공항 :

잭슨빌, 플로리다, 미국

위도: 30-20-10N, 경도: 081-30-53W, 고도: 12m

현재 날씨관측

예보는 1 시간 6분 전, 09:53시(UTC)에 발표되었습니다.
동남동3kt
온도 24°C
습도 89%
기압 1018 hPa
시정: 16.1km
맑음

METAR: KCRG 170953Z 11003KT 10SM CLR 24/22 A3006 RMK AO2 SLP178 T02440222 $

시각: 06:59 (10:59 UTC)

예보

예보는 5 시간 38분 전, 05:21시(UTC)에 발표되었습니다.
예보 대상 시간: 17일 06시부터 18일 06시까지 (UTC)
4kt
시정: 10km
고도 2000ft 상공 구름 조금
고도 25000ft 상공 구름 많음
17일 1200시부터 (UTC)
11kt, 순간 최대 풍속 20kt
시정: 10km
고도 4000ft 상공 구름 많음
고도 25000ft 상공 구름 많음
시계 내 소나기
17일 1400시부터 (UTC)
15kt, 순간 최대 풍속 25kt
시정: 10km
고도 5000ft 상공 구름 많음, 적란운.
고도 25000ft 상공 구름 많음
시계 내 뇌우
18일 0000시부터 (UTC)
12kt
시정: 10km
고도 4000ft 상공 구름 보통
고도 25000ft 상공 구름 많음

TAF: KCRG 170521Z 1706/1806 09004KT P6SM FEW020 BKN250 FM171200 08011G20KT P6SM VCSH BKN040 BKN250 FM171400 08015G25KT P6SM VCTS BKN050CB BKN250 FM180000 08012KT P6SM SCT040 BKN250

4,000개 이상의 공항 관측 자료 및 예보 (METAR 및 TAF 보고).

지도상에서 검색 가능한 기상관측소가 노란 점과 빨간 점으로 표시되어 있습니다.

기상관측소 명을 보려면 표시 위로 마우스를 이동하세요.

날씨 관측과 예보를 보려면 클릭하세요.

지도 변경 : 확대하려면 엑스 표시가 있는 녹색 버튼, 축소하려면 빼기 표시가 있는 녹색 버튼, 다음 페이지의 지도를 보려면 녹색 화살표를 클릭하세요.


METAR-TAF: